sensor_id;sensor_type;location;lat;lon;timestamp;temperature;humidity
27900;DHT22;15243;50.726;7.080;2023-03-23T00:00:59;13.20;99.90
27900;DHT22;15243;50.726;7.080;2023-03-23T00:03:26;13.20;99.90
27900;DHT22;15243;50.726;7.080;2023-03-23T00:06:03;13.20;99.90
27900;DHT22;15243;50.726;7.080;2023-03-23T00:08:33;13.30;99.90
27900;DHT22;15243;50.726;7.080;2023-03-23T00:10:59;13.40;99.90
27900;DHT22;15243;50.726;7.080;2023-03-23T00:13:28;13.30;99.90
27900;DHT22;15243;50.726;7.080;2023-03-23T00:15:54;13.40;99.90
27900;DHT22;15243;50.726;7.080;2023-03-23T00:18:23;13.40;99.90
27900;DHT22;15243;50.726;7.080;2023-03-23T00:20:54;13.30;99.90
27900;DHT22;15243;50.726;7.080;2023-03-23T00:23:23;13.30;99.90
27900;DHT22;15243;50.726;7.080;2023-03-23T00:25:53;13.30;99.90
27900;DHT22;15243;50.726;7.080;2023-03-23T00:28:20;13.20;99.90
27900;DHT22;15243;50.726;7.080;2023-03-23T00:31:04;13.20;99.90
27900;DHT22;15243;50.726;7.080;2023-03-23T00:33:36;13.20;99.90
27900;DHT22;15243;50.726;7.080;2023-03-23T00:36:07;13.20;99.90
27900;DHT22;15243;50.726;7.080;2023-03-23T00:38:34;13.20;99.90
27900;DHT22;15243;50.726;7.080;2023-03-23T00:41:00;13.20;99.90
27900;DHT22;15243;50.726;7.080;2023-03-23T00:43:29;13.20;99.90
27900;DHT22;15243;50.726;7.080;2023-03-23T00:45:56;13.20;99.90
27900;DHT22;15243;50.726;7.080;2023-03-23T00:48:23;13.10;99.90
27900;DHT22;15243;50.726;7.080;2023-03-23T00:50:50;13.20;99.90
27900;DHT22;15243;50.726;7.080;2023-03-23T00:53:17;13.10;99.90
27900;DHT22;15243;50.726;7.080;2023-03-23T00:55:48;13.20;99.90
27900;DHT22;15243;50.726;7.080;2023-03-23T00:58:15;13.20;99.90
27900;DHT22;15243;50.726;7.080;2023-03-23T01:00:41;13.20;99.90
27900;DHT22;15243;50.726;7.080;2023-03-23T01:03:09;13.10;99.90
27900;DHT22;15243;50.726;7.080;2023-03-23T01:05:39;13.10;99.90
27900;DHT22;15243;50.726;7.080;2023-03-23T01:08:05;13.20;99.90
27900;DHT22;15243;50.726;7.080;2023-03-23T01:10:32;13.20;99.90
27900;DHT22;15243;50.726;7.080;2023-03-23T01:13:01;13.20;99.90
27900;DHT22;15243;50.726;7.080;2023-03-23T01:15:28;13.10;99.90
27900;DHT22;15243;50.726;7.080;2023-03-23T01:17:56;13.10;99.90
27900;DHT22;15243;50.726;7.080;2023-03-23T01:20:22;13.10;99.90
27900;DHT22;15243;50.726;7.080;2023-03-23T01:22:48;13.10;99.90
27900;DHT22;15243;50.726;7.080;2023-03-23T01:25:14;13.10;99.90
27900;DHT22;15243;50.726;7.080;2023-03-23T01:27:40;13.10;99.90
27900;DHT22;15243;50.726;7.080;2023-03-23T01:30:08;13.10;99.90
27900;DHT22;15243;50.726;7.080;2023-03-23T01:32:35;13.10;99.90
27900;DHT22;15243;50.726;7.080;2023-03-23T01:35:01;13.20;99.90
27900;DHT22;15243;50.726;7.080;2023-03-23T01:37:27;13.20;99.90
27900;DHT22;15243;50.726;7.080;2023-03-23T01:39:53;13.20;99.90
27900;DHT22;15243;50.726;7.080;2023-03-23T01:42:31;13.20;99.90
27900;DHT22;15243;50.726;7.080;2023-03-23T01:47:56;13.10;99.90
27900;DHT22;15243;50.726;7.080;2023-03-23T01:50:26;13.10;99.90
27900;DHT22;15243;50.726;7.080;2023-03-23T01:52:54;13.10;99.90
27900;DHT22;15243;50.726;7.080;2023-03-23T01:55:21;13.10;99.90
27900;DHT22;15243;50.726;7.080;2023-03-23T01:57:48;13.10;99.90
27900;DHT22;15243;50.726;7.080;2023-03-23T02:00:15;13.00;99.90
27900;DHT22;15243;50.726;7.080;2023-03-23T02:02:47;13.00;99.90
27900;DHT22;15243;50.726;7.080;2023-03-23T02:05:21;12.90;99.90
27900;DHT22;15243;50.726;7.080;2023-03-23T02:07:50;12.90;99.90
27900;DHT22;15243;50.726;7.080;2023-03-23T02:10:16;13.00;99.90
27900;DHT22;15243;50.726;7.080;2023-03-23T02:12:42;12.80;99.90
27900;DHT22;15243;50.726;7.080;2023-03-23T02:15:08;12.80;99.90
27900;DHT22;15243;50.726;7.080;2023-03-23T02:17:46;12.70;99.90
27900;DHT22;15243;50.726;7.080;2023-03-23T02:20:33;12.70;99.90
27900;DHT22;15243;50.726;7.080;2023-03-23T02:23:25;12.80;99.90
27900;DHT22;15243;50.726;7.080;2023-03-23T02:34:37;12.50;99.90
27900;DHT22;15243;50.726;7.080;2023-03-23T02:37:44;12.50;99.90
27900;DHT22;15243;50.726;7.080;2023-03-23T02:40:14;12.50;99.90
27900;DHT22;15243;50.726;7.080;2023-03-23T02:42:47;12.40;99.90
27900;DHT22;15243;50.726;7.080;2023-03-23T02:45:14;12.50;99.90
27900;DHT22;15243;50.726;7.080;2023-03-23T02:47:41;12.40;99.90
27900;DHT22;15243;50.726;7.080;2023-03-23T02:50:13;12.30;99.90
27900;DHT22;15243;50.726;7.080;2023-03-23T02:52:41;12.30;99.90
27900;DHT22;15243;50.726;7.080;2023-03-23T02:55:10;12.20;99.90
27900;DHT22;15243;50.726;7.080;2023-03-23T02:57:37;12.10;99.90
27900;DHT22;15243;50.726;7.080;2023-03-23T03:00:08;12.10;99.90
27900;DHT22;15243;50.726;7.080;2023-03-23T03:02:41;12.00;99.90
27900;DHT22;15243;50.726;7.080;2023-03-23T03:19:03;11.70;99.90
27900;DHT22;15243;50.726;7.080;2023-03-23T03:21:34;11.70;99.90
27900;DHT22;15243;50.726;7.080;2023-03-23T03:24:03;11.70;99.90
27900;DHT22;15243;50.726;7.080;2023-03-23T03:26:31;11.80;99.90
27900;DHT22;15243;50.726;7.080;2023-03-23T03:29:00;11.80;99.90
27900;DHT22;15243;50.726;7.080;2023-03-23T03:31:38;11.80;99.90
27900;DHT22;15243;50.726;7.080;2023-03-23T03:34:05;11.80;99.90
27900;DHT22;15243;50.726;7.080;2023-03-23T03:36:33;11.80;99.90
27900;DHT22;15243;50.726;7.080;2023-03-23T03:39:08;11.80;99.90
27900;DHT22;15243;50.726;7.080;2023-03-23T03:41:35;11.80;99.90
27900;DHT22;15243;50.726;7.080;2023-03-23T03:44:02;11.70;99.90
27900;DHT22;15243;50.726;7.080;2023-03-23T03:46:28;11.80;99.90
27900;DHT22;15243;50.726;7.080;2023-03-23T03:48:57;11.70;99.90
27900;DHT22;15243;50.726;7.080;2023-03-23T03:51:25;11.80;99.90
27900;DHT22;15243;50.726;7.080;2023-03-23T03:53:52;11.80;99.90
27900;DHT22;15243;50.726;7.080;2023-03-23T03:56:17;12.00;99.90
27900;DHT22;15243;50.726;7.080;2023-03-23T03:58:45;11.90;99.90
27900;DHT22;15243;50.726;7.080;2023-03-23T04:01:14;11.80;99.90
27900;DHT22;15243;50.726;7.080;2023-03-23T04:03:42;11.80;99.90
27900;DHT22;15243;50.726;7.080;2023-03-23T04:06:08;11.70;99.90
27900;DHT22;15243;50.726;7.080;2023-03-23T04:08:35;11.70;99.90
27900;DHT22;15243;50.726;7.080;2023-03-23T04:11:03;11.70;99.90
27900;DHT22;15243;50.726;7.080;2023-03-23T04:13:30;11.60;99.90
27900;DHT22;15243;50.726;7.080;2023-03-23T04:15:56;11.70;99.90
27900;DHT22;15243;50.726;7.080;2023-03-23T04:18:22;11.60;99.90
27900;DHT22;15243;50.726;7.080;2023-03-23T04:20:50;11.60;99.90
27900;DHT22;15243;50.726;7.080;2023-03-23T04:23:17;11.60;99.90
27900;DHT22;15243;50.726;7.080;2023-03-23T04:25:49;11.70;99.90
27900;DHT22;15243;50.726;7.080;2023-03-23T04:28:17;11.80;99.90
27900;DHT22;15243;50.726;7.080;2023-03-23T04:30:44;11.70;99.90
27900;DHT22;15243;50.726;7.080;2023-03-23T04:33:10;11.70;99.90
27900;DHT22;15243;50.726;7.080;2023-03-23T04:35:43;11.70;99.90
27900;DHT22;15243;50.726;7.080;2023-03-23T04:38:12;11.60;99.90
27900;DHT22;15243;50.726;7.080;2023-03-23T04:40:40;11.60;99.90
27900;DHT22;15243;50.726;7.080;2023-03-23T04:43:06;11.60;99.90
27900;DHT22;15243;50.726;7.080;2023-03-23T04:45:34;11.50;99.90
27900;DHT22;15243;50.726;7.080;2023-03-23T04:48:04;11.50;99.90
27900;DHT22;15243;50.726;7.080;2023-03-23T04:50:32;11.50;99.90
27900;DHT22;15243;50.726;7.080;2023-03-23T04:53:02;11.50;99.90
27900;DHT22;15243;50.726;7.080;2023-03-23T04:55:35;11.50;99.90
27900;DHT22;15243;50.726;7.080;2023-03-23T04:58:05;11.50;99.90
27900;DHT22;15243;50.726;7.080;2023-03-23T05:00:32;11.60;99.90
27900;DHT22;15243;50.726;7.080;2023-03-23T05:03:00;11.50;99.90
27900;DHT22;15243;50.726;7.080;2023-03-23T05:05:26;11.60;99.90
27900;DHT22;15243;50.726;7.080;2023-03-23T05:07:53;11.50;99.90
27900;DHT22;15243;50.726;7.080;2023-03-23T05:10:19;11.50;99.90
27900;DHT22;15243;50.726;7.080;2023-03-23T05:12:45;11.50;99.90
27900;DHT22;15243;50.726;7.080;2023-03-23T05:15:12;11.50;99.90
27900;DHT22;15243;50.726;7.080;2023-03-23T05:17:38;11.60;99.90
27900;DHT22;15243;50.726;7.080;2023-03-23T05:20:06;11.50;99.90
27900;DHT22;15243;50.726;7.080;2023-03-23T05:22:37;11.60;99.90
27900;DHT22;15243;50.726;7.080;2023-03-23T05:25:07;11.50;99.90
27900;DHT22;15243;50.726;7.080;2023-03-23T05:27:39;11.50;99.90
27900;DHT22;15243;50.726;7.080;2023-03-23T05:30:09;11.50;99.90
27900;DHT22;15243;50.726;7.080;2023-03-23T05:32:35;11.40;99.90
27900;DHT22;15243;50.726;7.080;2023-03-23T05:35:04;11.40;99.90
27900;DHT22;15243;50.726;7.080;2023-03-23T05:37:30;11.40;99.90
27900;DHT22;15243;50.726;7.080;2023-03-23T05:39:58;11.40;99.90
27900;DHT22;15243;50.726;7.080;2023-03-23T05:42:27;11.50;99.90
27900;DHT22;15243;50.726;7.080;2023-03-23T05:44:53;11.50;99.90
27900;DHT22;15243;50.726;7.080;2023-03-23T05:47:19;11.50;99.90
27900;DHT22;15243;50.726;7.080;2023-03-23T05:49:44;11.50;99.90
27900;DHT22;15243;50.726;7.080;2023-03-23T05:52:11;11.50;99.90
27900;DHT22;15243;50.726;7.080;2023-03-23T05:54:37;11.60;99.90
27900;DHT22;15243;50.726;7.080;2023-03-23T05:57:03;11.60;99.90
27900;DHT22;15243;50.726;7.080;2023-03-23T05:59:29;11.70;99.90
27900;DHT22;15243;50.726;7.080;2023-03-23T06:01:54;11.70;99.90
27900;DHT22;15243;50.726;7.080;2023-03-23T06:04:21;11.80;99.90
27900;DHT22;15243;50.726;7.080;2023-03-23T06:06:51;11.90;99.90
27900;DHT22;15243;50.726;7.080;2023-03-23T06:09:18;12.00;99.90
27900;DHT22;15243;50.726;7.080;2023-03-23T06:11:44;12.00;99.90
27900;DHT22;15243;50.726;7.080;2023-03-23T06:14:10;12.00;99.90
27900;DHT22;15243;50.726;7.080;2023-03-23T06:16:37;12.00;99.90
27900;DHT22;15243;50.726;7.080;2023-03-23T06:19:03;12.00;99.90
27900;DHT22;15243;50.726;7.080;2023-03-23T06:21:32;11.90;99.90
27900;DHT22;15243;50.726;7.080;2023-03-23T06:23:58;12.00;99.90
27900;DHT22;15243;50.726;7.080;2023-03-23T06:26:34;12.00;99.90
27900;DHT22;15243;50.726;7.080;2023-03-23T06:29:04;12.20;99.90
27900;DHT22;15243;50.726;7.080;2023-03-23T06:31:39;12.20;99.90
27900;DHT22;15243;50.726;7.080;2023-03-23T06:34:06;12.30;99.90
27900;DHT22;15243;50.726;7.080;2023-03-23T06:36:32;12.30;99.90
27900;DHT22;15243;50.726;7.080;2023-03-23T06:38:57;12.30;99.90
27900;DHT22;15243;50.726;7.080;2023-03-23T06:41:23;12.30;99.90
27900;DHT22;15243;50.726;7.080;2023-03-23T06:43:49;12.50;99.90
27900;DHT22;15243;50.726;7.080;2023-03-23T06:46:17;12.50;99.90
27900;DHT22;15243;50.726;7.080;2023-03-23T06:48:43;12.50;99.90
27900;DHT22;15243;50.726;7.080;2023-03-23T06:51:10;12.50;99.90
27900;DHT22;15243;50.726;7.080;2023-03-23T06:53:35;12.50;99.90
27900;DHT22;15243;50.726;7.080;2023-03-23T06:56:01;12.50;99.90
27900;DHT22;15243;50.726;7.080;2023-03-23T06:58:27;12.60;99.90
27900;DHT22;15243;50.726;7.080;2023-03-23T07:00:54;12.60;99.90
27900;DHT22;15243;50.726;7.080;2023-03-23T07:03:22;12.70;99.90
27900;DHT22;15243;50.726;7.080;2023-03-23T07:05:48;12.70;99.90
27900;DHT22;15243;50.726;7.080;2023-03-23T07:08:15;12.70;99.90
27900;DHT22;15243;50.726;7.080;2023-03-23T07:10:41;12.80;99.90
27900;DHT22;15243;50.726;7.080;2023-03-23T07:13:07;12.70;99.90
27900;DHT22;15243;50.726;7.080;2023-03-23T07:15:33;12.80;99.90
27900;DHT22;15243;50.726;7.080;2023-03-23T07:17:59;12.90;99.90
27900;DHT22;15243;50.726;7.080;2023-03-23T07:20:25;12.90;99.90
27900;DHT22;15243;50.726;7.080;2023-03-23T07:22:50;13.00;99.90
27900;DHT22;15243;50.726;7.080;2023-03-23T07:25:17;13.00;99.90
27900;DHT22;15243;50.726;7.080;2023-03-23T07:27:50;13.10;99.90
27900;DHT22;15243;50.726;7.080;2023-03-23T07:30:16;13.10;99.90
27900;DHT22;15243;50.726;7.080;2023-03-23T07:32:42;13.20;99.90
27900;DHT22;15243;50.726;7.080;2023-03-23T07:35:09;13.20;99.90
27900;DHT22;15243;50.726;7.080;2023-03-23T07:37:35;13.20;99.90
27900;DHT22;15243;50.726;7.080;2023-03-23T07:40:02;13.40;99.90
27900;DHT22;15243;50.726;7.080;2023-03-23T07:42:44;13.30;99.90
27900;DHT22;15243;50.726;7.080;2023-03-23T07:45:13;13.30;99.90
27900;DHT22;15243;50.726;7.080;2023-03-23T07:47:40;13.40;99.90
27900;DHT22;15243;50.726;7.080;2023-03-23T07:50:07;13.40;99.90
27900;DHT22;15243;50.726;7.080;2023-03-23T07:52:34;13.40;99.90
27900;DHT22;15243;50.726;7.080;2023-03-23T07:55:01;13.50;99.90
27900;DHT22;15243;50.726;7.080;2023-03-23T07:57:29;13.50;99.90
27900;DHT22;15243;50.726;7.080;2023-03-23T07:59:55;13.60;99.90
27900;DHT22;15243;50.726;7.080;2023-03-23T08:02:23;13.70;99.90
27900;DHT22;15243;50.726;7.080;2023-03-23T08:04:51;13.70;99.90
27900;DHT22;15243;50.726;7.080;2023-03-23T08:07:18;13.80;99.90
27900;DHT22;15243;50.726;7.080;2023-03-23T08:09:47;13.70;99.90
27900;DHT22;15243;50.726;7.080;2023-03-23T08:12:13;13.80;99.90
27900;DHT22;15243;50.726;7.080;2023-03-23T08:14:39;13.90;99.90
27900;DHT22;15243;50.726;7.080;2023-03-23T08:17:07;13.80;99.90
27900;DHT22;15243;50.726;7.080;2023-03-23T08:19:35;13.80;99.90
27900;DHT22;15243;50.726;7.080;2023-03-23T08:22:05;14.00;99.90
27900;DHT22;15243;50.726;7.080;2023-03-23T08:24:33;13.80;99.90
27900;DHT22;15243;50.726;7.080;2023-03-23T08:27:00;13.80;99.90
27900;DHT22;15243;50.726;7.080;2023-03-23T08:29:26;13.90;99.90
27900;DHT22;15243;50.726;7.080;2023-03-23T08:31:52;13.90;99.90
27900;DHT22;15243;50.726;7.080;2023-03-23T08:34:19;13.90;99.90
27900;DHT22;15243;50.726;7.080;2023-03-23T08:36:45;13.90;99.90
27900;DHT22;15243;50.726;7.080;2023-03-23T08:39:12;14.10;99.90
27900;DHT22;15243;50.726;7.080;2023-03-23T08:41:40;14.00;99.90
27900;DHT22;15243;50.726;7.080;2023-03-23T08:44:06;14.00;99.90
27900;DHT22;15243;50.726;7.080;2023-03-23T08:46:33;14.00;99.90
27900;DHT22;15243;50.726;7.080;2023-03-23T08:49:00;14.00;99.90
27900;DHT22;15243;50.726;7.080;2023-03-23T08:51:26;14.00;99.90
27900;DHT22;15243;50.726;7.080;2023-03-23T08:53:52;14.10;99.90
27900;DHT22;15243;50.726;7.080;2023-03-23T08:56:18;14.00;99.90
27900;DHT22;15243;50.726;7.080;2023-03-23T08:58:44;14.00;99.90
27900;DHT22;15243;50.726;7.080;2023-03-23T09:01:10;14.20;99.90
27900;DHT22;15243;50.726;7.080;2023-03-23T09:03:36;14.20;99.90
27900;DHT22;15243;50.726;7.080;2023-03-23T09:06:05;14.10;99.90
27900;DHT22;15243;50.726;7.080;2023-03-23T09:08:32;14.20;99.90
27900;DHT22;15243;50.726;7.080;2023-03-23T09:11:07;14.10;99.90
27900;DHT22;15243;50.726;7.080;2023-03-23T09:13:36;14.20;99.90
27900;DHT22;15243;50.726;7.080;2023-03-23T09:16:03;14.20;99.90
27900;DHT22;15243;50.726;7.080;2023-03-23T09:18:30;14.30;99.90
27900;DHT22;15243;50.726;7.080;2023-03-23T09:20:58;14.40;99.90
27900;DHT22;15243;50.726;7.080;2023-03-23T09:23:25;14.50;99.90
27900;DHT22;15243;50.726;7.080;2023-03-23T09:25:51;14.60;99.90
27900;DHT22;15243;50.726;7.080;2023-03-23T09:28:18;14.50;99.90
27900;DHT22;15243;50.726;7.080;2023-03-23T09:30:44;14.40;99.90
27900;DHT22;15243;50.726;7.080;2023-03-23T09:33:11;14.30;99.90
27900;DHT22;15243;50.726;7.080;2023-03-23T09:35:37;14.40;99.90
27900;DHT22;15243;50.726;7.080;2023-03-23T09:38:05;14.70;99.90
27900;DHT22;15243;50.726;7.080;2023-03-23T09:54:28;14.60;99.90
27900;DHT22;15243;50.726;7.080;2023-03-23T09:56:57;14.60;99.90
27900;DHT22;15243;50.726;7.080;2023-03-23T09:59:44;14.70;99.90
27900;DHT22;15243;50.726;7.080;2023-03-23T10:02:15;14.60;99.90
27900;DHT22;15243;50.726;7.080;2023-03-23T10:04:48;14.60;99.90
27900;DHT22;15243;50.726;7.080;2023-03-23T10:07:24;14.80;99.90
27900;DHT22;15243;50.726;7.080;2023-03-23T10:09:59;14.80;99.90
27900;DHT22;15243;50.726;7.080;2023-03-23T10:12:45;14.60;99.90
27900;DHT22;15243;50.726;7.080;2023-03-23T10:15:15;14.60;99.90
27900;DHT22;15243;50.726;7.080;2023-03-23T10:18:10;14.70;99.90
27900;DHT22;15243;50.726;7.080;2023-03-23T10:20:49;14.60;99.90
27900;DHT22;15243;50.726;7.080;2023-03-23T10:23:35;14.70;99.90
27900;DHT22;15243;50.726;7.080;2023-03-23T10:28:51;15.00;99.90
27900;DHT22;15243;50.726;7.080;2023-03-23T10:31:26;15.00;99.90
27900;DHT22;15243;50.726;7.080;2023-03-23T10:33:57;14.90;99.90
27900;DHT22;15243;50.726;7.080;2023-03-23T10:37:03;15.10;99.90
27900;DHT22;15243;50.726;7.080;2023-03-23T10:39:24;15.00;99.90
27900;DHT22;15243;50.726;7.080;2023-03-23T10:41:52;14.80;99.90
27900;DHT22;15243;50.726;7.080;2023-03-23T10:44:20;14.80;99.90
27900;DHT22;15243;50.726;7.080;2023-03-23T10:47:05;14.80;99.90
27900;DHT22;15243;50.726;7.080;2023-03-23T10:49:39;14.50;99.90
27900;DHT22;15243;50.726;7.080;2023-03-23T10:52:29;14.50;99.90
27900;DHT22;15243;50.726;7.080;2023-03-23T10:57:34;14.70;99.90
27900;DHT22;15243;50.726;7.080;2023-03-23T11:02:56;14.70;99.90
27900;DHT22;15243;50.726;7.080;2023-03-23T11:05:48;14.60;99.90
27900;DHT22;15243;50.726;7.080;2023-03-23T11:08:36;14.60;99.90
27900;DHT22;15243;50.726;7.080;2023-03-23T11:11:14;14.50;99.90
27900;DHT22;15243;50.726;7.080;2023-03-23T11:13:46;14.70;99.90
27900;DHT22;15243;50.726;7.080;2023-03-23T11:16:33;14.80;99.90
27900;DHT22;15243;50.726;7.080;2023-03-23T11:19:12;15.00;99.90
27900;DHT22;15243;50.726;7.080;2023-03-23T11:21:39;15.00;99.90
27900;DHT22;15243;50.726;7.080;2023-03-23T11:24:08;14.80;99.90
27900;DHT22;15243;50.726;7.080;2023-03-23T11:26:34;15.00;99.90
27900;DHT22;15243;50.726;7.080;2023-03-23T11:29:26;14.90;99.90
27900;DHT22;15243;50.726;7.080;2023-03-23T11:32:06;15.10;99.90
27900;DHT22;15243;50.726;7.080;2023-03-23T11:34:44;15.30;99.90
27900;DHT22;15243;50.726;7.080;2023-03-23T11:37:38;15.40;99.90
27900;DHT22;15243;50.726;7.080;2023-03-23T11:42:43;15.40;99.90
27900;DHT22;15243;50.726;7.080;2023-03-23T11:45:36;15.50;99.90
27900;DHT22;15243;50.726;7.080;2023-03-23T11:51:11;15.80;99.90
27900;DHT22;15243;50.726;7.080;2023-03-23T11:56:42;15.70;99.90
27900;DHT22;15243;50.726;7.080;2023-03-23T11:59:17;15.50;99.90
27900;DHT22;15243;50.726;7.080;2023-03-23T12:13:13;15.50;99.90
27900;DHT22;15243;50.726;7.080;2023-03-23T12:15:58;15.50;99.90
27900;DHT22;15243;50.726;7.080;2023-03-23T12:18:48;15.70;99.90
27900;DHT22;15243;50.726;7.080;2023-03-23T12:22:03;16.00;99.90
27900;DHT22;15243;50.726;7.080;2023-03-23T12:24:49;15.80;99.90
27900;DHT22;15243;50.726;7.080;2023-03-23T12:27:46;15.70;99.90
27900;DHT22;15243;50.726;7.080;2023-03-23T12:43:31;15.60;99.90
27900;DHT22;15243;50.726;7.080;2023-03-23T12:48:51;15.60;99.90
27900;DHT22;15243;50.726;7.080;2023-03-23T12:51:48;15.60;99.90
27900;DHT22;15243;50.726;7.080;2023-03-23T12:54:30;15.70;99.90
27900;DHT22;15243;50.726;7.080;2023-03-23T12:57:08;15.80;99.90
27900;DHT22;15243;50.726;7.080;2023-03-23T13:04:50;15.40;99.90
27900;DHT22;15243;50.726;7.080;2023-03-23T13:07:28;15.50;99.90
27900;DHT22;15243;50.726;7.080;2023-03-23T13:10:03;15.50;99.90
27900;DHT22;15243;50.726;7.080;2023-03-23T13:12:31;15.60;99.90
27900;DHT22;15243;50.726;7.080;2023-03-23T13:17:43;15.50;99.90
27900;DHT22;15243;50.726;7.080;2023-03-23T13:20:36;15.80;99.90
27900;DHT22;15243;50.726;7.080;2023-03-23T13:23:07;15.60;99.90
27900;DHT22;15243;50.726;7.080;2023-03-23T13:28:05;15.80;99.90
27900;DHT22;15243;50.726;7.080;2023-03-23T13:30:31;16.00;99.90
27900;DHT22;15243;50.726;7.080;2023-03-23T13:33:06;15.90;99.90
27900;DHT22;15243;50.726;7.080;2023-03-23T13:35:38;16.10;99.90
27900;DHT22;15243;50.726;7.080;2023-03-23T13:38:32;16.40;99.90
27900;DHT22;15243;50.726;7.080;2023-03-23T13:41:10;16.40;99.90
27900;DHT22;15243;50.726;7.080;2023-03-23T13:43:37;16.40;99.90
27900;DHT22;15243;50.726;7.080;2023-03-23T13:54:14;16.30;99.90
27900;DHT22;15243;50.726;7.080;2023-03-23T14:01:54;16.50;99.90
27900;DHT22;15243;50.726;7.080;2023-03-23T14:04:22;16.60;99.90
27900;DHT22;15243;50.726;7.080;2023-03-23T14:06:50;16.30;99.90
27900;DHT22;15243;50.726;7.080;2023-03-23T14:09:27;16.40;99.90
27900;DHT22;15243;50.726;7.080;2023-03-23T14:12:02;17.10;99.90
27900;DHT22;15243;50.726;7.080;2023-03-23T14:14:40;17.10;99.90
27900;DHT22;15243;50.726;7.080;2023-03-23T14:17:18;16.90;99.90
27900;DHT22;15243;50.726;7.080;2023-03-23T14:19:52;16.50;99.90
27900;DHT22;15243;50.726;7.080;2023-03-23T14:22:33;16.30;99.90
27900;DHT22;15243;50.726;7.080;2023-03-23T14:27:36;16.10;99.90
27900;DHT22;15243;50.726;7.080;2023-03-23T14:30:07;16.20;99.90
27900;DHT22;15243;50.726;7.080;2023-03-23T14:32:33;16.30;99.90
27900;DHT22;15243;50.726;7.080;2023-03-23T14:35:05;16.20;99.90
27900;DHT22;15243;50.726;7.080;2023-03-23T14:37:33;16.00;99.90
27900;DHT22;15243;50.726;7.080;2023-03-23T14:40:01;16.00;99.90
27900;DHT22;15243;50.726;7.080;2023-03-23T14:42:33;16.00;99.90
27900;DHT22;15243;50.726;7.080;2023-03-23T14:45:00;16.20;99.90
27900;DHT22;15243;50.726;7.080;2023-03-23T14:47:35;16.20;99.90
27900;DHT22;15243;50.726;7.080;2023-03-23T14:50:06;16.00;99.90
27900;DHT22;15243;50.726;7.080;2023-03-23T14:52:36;15.90;99.90
27900;DHT22;15243;50.726;7.080;2023-03-23T14:55:20;16.00;99.90
27900;DHT22;15243;50.726;7.080;2023-03-23T14:57:49;16.20;99.90
27900;DHT22;15243;50.726;7.080;2023-03-23T15:00:19;16.80;99.90
27900;DHT22;15243;50.726;7.080;2023-03-23T15:02:49;17.40;99.90
27900;DHT22;15243;50.726;7.080;2023-03-23T15:05:19;17.20;99.90
27900;DHT22;15243;50.726;7.080;2023-03-23T15:07:52;17.70;99.90
27900;DHT22;15243;50.726;7.080;2023-03-23T15:10:33;17.80;99.90
27900;DHT22;15243;50.726;7.080;2023-03-23T15:13:02;17.80;99.90
27900;DHT22;15243;50.726;7.080;2023-03-23T15:15:34;17.30;99.90
27900;DHT22;15243;50.726;7.080;2023-03-23T15:18:02;17.40;99.90
27900;DHT22;15243;50.726;7.080;2023-03-23T15:20:29;18.00;99.90
27900;DHT22;15243;50.726;7.080;2023-03-23T15:22:56;17.90;99.90
27900;DHT22;15243;50.726;7.080;2023-03-23T15:25:34;17.70;99.90
27900;DHT22;15243;50.726;7.080;2023-03-23T15:28:20;17.70;99.90
27900;DHT22;15243;50.726;7.080;2023-03-23T15:30:52;17.30;99.90
27900;DHT22;15243;50.726;7.080;2023-03-23T15:33:18;17.40;99.90
27900;DHT22;15243;50.726;7.080;2023-03-23T15:35:52;16.90;99.90
27900;DHT22;15243;50.726;7.080;2023-03-23T15:38:26;17.00;99.90
27900;DHT22;15243;50.726;7.080;2023-03-23T15:40:56;16.70;99.90
27900;DHT22;15243;50.726;7.080;2023-03-23T15:43:26;16.60;99.90
27900;DHT22;15243;50.726;7.080;2023-03-23T15:48:22;16.40;99.90
27900;DHT22;15243;50.726;7.080;2023-03-23T15:50:49;16.30;99.90
27900;DHT22;15243;50.726;7.080;2023-03-23T15:55:44;17.10;99.90
27900;DHT22;15243;50.726;7.080;2023-03-23T15:58:11;17.10;99.90
27900;DHT22;15243;50.726;7.080;2023-03-23T16:00:40;17.80;99.90
27900;DHT22;15243;50.726;7.080;2023-03-23T16:03:15;18.10;99.90
27900;DHT22;15243;50.726;7.080;2023-03-23T16:05:43;17.80;99.90
27900;DHT22;15243;50.726;7.080;2023-03-23T16:08:11;17.10;99.90
27900;DHT22;15243;50.726;7.080;2023-03-23T16:10:38;16.70;99.90
27900;DHT22;15243;50.726;7.080;2023-03-23T16:13:05;16.60;99.90
27900;DHT22;15243;50.726;7.080;2023-03-23T16:15:33;16.80;99.90
27900;DHT22;15243;50.726;7.080;2023-03-23T16:18:00;16.70;99.90
27900;DHT22;15243;50.726;7.080;2023-03-23T16:20:28;16.80;99.90
27900;DHT22;15243;50.726;7.080;2023-03-23T16:22:56;17.00;99.90
27900;DHT22;15243;50.726;7.080;2023-03-23T16:25:23;16.70;99.90
27900;DHT22;15243;50.726;7.080;2023-03-23T16:27:50;16.50;99.90
27900;DHT22;15243;50.726;7.080;2023-03-23T16:30:21;16.60;99.90
27900;DHT22;15243;50.726;7.080;2023-03-23T16:32:48;16.20;99.90
27900;DHT22;15243;50.726;7.080;2023-03-23T16:35:17;16.10;99.90
27900;DHT22;15243;50.726;7.080;2023-03-23T16:37:46;16.20;99.90
27900;DHT22;15243;50.726;7.080;2023-03-23T16:40:14;16.20;99.90
27900;DHT22;15243;50.726;7.080;2023-03-23T16:42:42;16.20;99.90
27900;DHT22;15243;50.726;7.080;2023-03-23T16:45:10;16.00;99.90
27900;DHT22;15243;50.726;7.080;2023-03-23T16:47:38;15.90;99.90
27900;DHT22;15243;50.726;7.080;2023-03-23T16:50:07;15.80;99.90
27900;DHT22;15243;50.726;7.080;2023-03-23T16:52:38;15.80;99.90
27900;DHT22;15243;50.726;7.080;2023-03-23T16:55:14;15.90;99.90
27900;DHT22;15243;50.726;7.080;2023-03-23T16:57:41;15.90;99.90
27900;DHT22;15243;50.726;7.080;2023-03-23T17:00:18;15.80;99.90
27900;DHT22;15243;50.726;7.080;2023-03-23T17:02:47;15.60;99.90
27900;DHT22;15243;50.726;7.080;2023-03-23T17:05:14;15.40;99.90
27900;DHT22;15243;50.726;7.080;2023-03-23T17:07:42;15.40;99.90
27900;DHT22;15243;50.726;7.080;2023-03-23T17:10:10;15.30;99.90
27900;DHT22;15243;50.726;7.080;2023-03-23T17:12:39;15.30;99.90
27900;DHT22;15243;50.726;7.080;2023-03-23T17:15:07;15.10;99.90
27900;DHT22;15243;50.726;7.080;2023-03-23T17:17:35;15.10;99.90
27900;DHT22;15243;50.726;7.080;2023-03-23T17:20:03;15.00;99.90
27900;DHT22;15243;50.726;7.080;2023-03-23T17:22:31;14.90;99.90
27900;DHT22;15243;50.726;7.080;2023-03-23T17:24:58;14.90;99.90
27900;DHT22;15243;50.726;7.080;2023-03-23T17:27:25;14.80;99.90
27900;DHT22;15243;50.726;7.080;2023-03-23T17:29:52;14.80;99.90
27900;DHT22;15243;50.726;7.080;2023-03-23T17:32:19;14.80;99.90
27900;DHT22;15243;50.726;7.080;2023-03-23T17:34:47;14.70;99.90
27900;DHT22;15243;50.726;7.080;2023-03-23T17:37:14;14.70;99.90
27900;DHT22;15243;50.726;7.080;2023-03-23T17:39:41;14.70;99.90
27900;DHT22;15243;50.726;7.080;2023-03-23T17:42:10;14.60;99.90
27900;DHT22;15243;50.726;7.080;2023-03-23T17:44:37;14.60;99.90